createdAt,value
2023-04-25T00:01:48.483Z,100.00
2023-04-25T00:04:16.157Z,100.00
2023-04-25T00:06:43.782Z,100.00
2023-04-25T00:09:12.391Z,100.00
2023-04-25T00:11:41.634Z,100.00
2023-04-25T00:14:08.886Z,100.00
2023-04-25T00:16:36.673Z,100.00
2023-04-25T00:19:06.803Z,100.00
2023-04-25T00:21:34.553Z,100.00
2023-04-25T00:24:02.101Z,100.00
2023-04-25T00:26:29.429Z,100.00
2023-04-25T00:28:56.789Z,100.00
2023-04-25T00:31:24.145Z,100.00
2023-04-25T00:33:51.826Z,100.00
2023-04-25T00:36:19.686Z,100.00
2023-04-25T00:38:46.884Z,100.00
2023-04-25T00:41:14.756Z,100.00
2023-04-25T00:43:43.048Z,100.00
2023-04-25T00:46:10.745Z,100.00
2023-04-25T00:48:38.148Z,100.00
2023-04-25T00:51:06.048Z,100.00
2023-04-25T00:53:34.579Z,100.00
2023-04-25T00:56:01.855Z,100.00
2023-04-25T00:58:29.256Z,100.00
2023-04-25T01:00:57.337Z,100.00
2023-04-25T01:03:25.493Z,100.00
2023-04-25T01:05:53.175Z,100.00
2023-04-25T01:08:25.317Z,100.00
2023-04-25T01:10:52.770Z,100.00
2023-04-25T01:13:20.979Z,100.00
2023-04-25T01:15:49.208Z,100.00
2023-04-25T01:18:17.754Z,100.00
2023-04-25T01:20:46.350Z,100.00
2023-04-25T01:23:14.589Z,100.00
2023-04-25T01:25:42.851Z,100.00
2023-04-25T01:28:10.638Z,100.00
2023-04-25T01:30:38.656Z,100.00
2023-04-25T01:33:07.533Z,100.00
2023-04-25T01:35:35.099Z,100.00
2023-04-25T01:38:02.920Z,100.00
2023-04-25T01:40:31.329Z,100.00
2023-04-25T01:42:58.613Z,100.00
2023-04-25T01:45:26.583Z,100.00
2023-04-25T01:47:54.852Z,100.00
2023-04-25T01:50:22.270Z,100.00
2023-04-25T01:52:50.679Z,100.00
2023-04-25T01:55:18.471Z,100.00
2023-04-25T01:58:04.211Z,100.00
2023-04-25T02:00:50.989Z,100.00
2023-04-25T02:03:18.837Z,100.00
2023-04-25T02:05:46.697Z,100.00
2023-04-25T02:08:15.425Z,100.00
2023-04-25T02:10:42.962Z,100.00
2023-04-25T02:13:19.116Z,100.00
2023-04-25T02:16:15.164Z,100.00
2023-04-25T02:18:42.586Z,100.00
2023-04-25T02:21:10.000Z,100.00
2023-04-25T02:23:37.507Z,100.00
2023-04-25T02:26:04.859Z,100.00
2023-04-25T02:28:32.358Z,100.00
2023-04-25T02:31:01.896Z,100.00
2023-04-25T02:33:29.237Z,100.00
2023-04-25T02:35:58.747Z,100.00
2023-04-25T02:38:26.332Z,100.00
2023-04-25T02:40:53.783Z,100.00
2023-04-25T02:43:21.736Z,100.00
2023-04-25T02:45:48.989Z,100.00
2023-04-25T02:48:16.312Z,100.00
2023-04-25T02:50:43.667Z,100.00
2023-04-25T02:53:10.937Z,100.00
2023-04-25T02:55:45.573Z,100.00
2023-04-25T02:58:12.866Z,100.00
2023-04-25T03:00:47.303Z,100.00
2023-04-25T03:03:16.108Z,100.00
2023-04-25T03:05:43.554Z,100.00
2023-04-25T03:08:10.982Z,100.00
2023-04-25T03:10:39.956Z,100.00
2023-04-25T03:13:10.671Z,100.00
2023-04-25T03:15:40.874Z,100.00
2023-04-25T03:18:08.296Z,100.00
2023-04-25T03:20:35.779Z,100.00
2023-04-25T03:23:04.866Z,100.00
2023-04-25T03:25:32.767Z,100.00
2023-04-25T03:28:00.123Z,100.00
2023-04-25T03:30:27.492Z,100.00
2023-04-25T03:32:54.858Z,100.00
2023-04-25T03:35:22.233Z,100.00
2023-04-25T03:37:49.533Z,100.00
2023-04-25T03:40:22.220Z,100.00
2023-04-25T03:43:09.759Z,100.00
2023-04-25T03:45:38.444Z,100.00
2023-04-25T03:48:06.293Z,100.00
2023-04-25T03:50:34.518Z,100.00
2023-04-25T03:53:01.837Z,100.00
2023-04-25T03:55:34.505Z,100.00
2023-04-25T03:58:02.182Z,100.00
2023-04-25T04:00:29.491Z,100.00
2023-04-25T04:02:57.069Z,100.00
2023-04-25T04:05:24.634Z,100.00
2023-04-25T04:07:56.473Z,100.00
2023-04-25T04:10:24.296Z,100.00
2023-04-25T04:12:51.672Z,100.00
2023-04-25T04:15:19.243Z,100.00
2023-04-25T04:17:48.959Z,100.00
2023-04-25T04:20:16.413Z,100.00
2023-04-25T04:22:43.856Z,100.00
2023-04-25T04:25:14.050Z,100.00
2023-04-25T04:28:04.545Z,100.00
2023-04-25T04:30:53.546Z,100.00
2023-04-25T04:33:20.859Z,100.00
2023-04-25T04:35:54.494Z,100.00
2023-04-25T04:38:22.958Z,100.00
2023-04-25T04:40:54.762Z,100.00
2023-04-25T04:43:38.155Z,100.00
2023-04-25T04:46:25.838Z,100.00
2023-04-25T04:49:13.515Z,100.00
2023-04-25T04:52:07.422Z,100.00
2023-04-25T04:54:52.862Z,100.00
2023-04-25T04:57:36.221Z,100.00
2023-04-25T05:00:17.070Z,100.00
2023-04-25T05:02:45.176Z,100.00
2023-04-25T05:05:41.004Z,100.00
2023-04-25T05:08:26.539Z,100.00
2023-04-25T05:11:12.195Z,100.00
2023-04-25T05:14:18.042Z,100.00
2023-04-25T05:16:59.490Z,100.00
2023-04-25T05:19:47.166Z,100.00
2023-04-25T05:22:25.424Z,100.00
2023-04-25T05:25:28.654Z,100.00
2023-04-25T05:28:09.236Z,100.00
2023-04-25T05:30:42.449Z,100.00
2023-04-25T05:33:17.611Z,100.00
2023-04-25T05:35:46.376Z,100.00
2023-04-25T05:38:13.739Z,100.00
2023-04-25T05:41:01.643Z,100.00
2023-04-25T05:43:40.401Z,100.00
2023-04-25T05:46:21.661Z,100.00
2023-04-25T05:49:08.053Z,100.00
2023-04-25T05:52:13.645Z,100.00
2023-04-25T05:54:41.022Z,100.00
2023-04-25T05:57:08.486Z,100.00
2023-04-25T05:59:36.106Z,100.00
2023-04-25T06:02:03.848Z,100.00
2023-04-25T06:04:35.826Z,100.00
2023-04-25T06:07:03.479Z,100.00
2023-04-25T06:09:31.134Z,100.00
2023-04-25T06:11:59.482Z,100.00
2023-04-25T06:14:28.958Z,100.00
2023-04-25T06:16:57.185Z,100.00
2023-04-25T06:19:24.453Z,100.00
2023-04-25T06:21:51.860Z,100.00
2023-04-25T06:24:20.768Z,100.00
2023-04-25T06:26:48.797Z,100.00
2023-04-25T06:29:16.502Z,100.00
2023-04-25T06:31:44.253Z,100.00
2023-04-25T06:34:11.817Z,100.00
2023-04-25T06:36:42.520Z,100.00
2023-04-25T06:39:12.983Z,100.00
2023-04-25T06:41:42.332Z,100.00
2023-04-25T06:44:27.161Z,100.00
2023-04-25T06:46:54.434Z,100.00
2023-04-25T06:49:21.892Z,100.00
2023-04-25T06:51:49.205Z,100.00
2023-04-25T06:54:16.642Z,100.00
2023-04-25T06:56:54.716Z,100.00
2023-04-25T06:59:22.392Z,100.00
2023-04-25T07:01:49.648Z,100.00
2023-04-25T07:04:20.560Z,100.00
2023-04-25T07:06:55.816Z,100.00
2023-04-25T07:09:49.609Z,100.00
2023-04-25T07:12:16.900Z,100.00
2023-04-25T07:14:45.055Z,100.00
2023-04-25T07:17:12.983Z,100.00
2023-04-25T07:19:41.034Z,100.00
2023-04-25T07:22:09.463Z,100.00
2023-04-25T07:24:40.454Z,100.00
2023-04-25T07:27:08.846Z,100.00
2023-04-25T07:29:56.749Z,100.00
2023-04-25T07:32:24.838Z,100.00
2023-04-25T07:34:52.453Z,100.00
2023-04-25T07:37:22.772Z,100.00
2023-04-25T07:40:02.739Z,100.00
2023-04-25T07:42:30.449Z,100.00
2023-04-25T07:44:58.143Z,100.00
2023-04-25T07:47:25.760Z,100.00
2023-04-25T07:49:54.010Z,100.00
2023-04-25T07:52:22.588Z,100.00
2023-04-25T07:54:54.940Z,100.00
2023-04-25T07:57:30.297Z,100.00
2023-04-25T07:59:58.633Z,100.00
2023-04-25T08:02:29.381Z,100.00
2023-04-25T08:04:57.034Z,100.00
2023-04-25T08:07:24.418Z,100.00
2023-04-25T08:09:56.010Z,100.00
2023-04-25T08:12:27.808Z,100.00
2023-04-25T08:14:55.199Z,100.00
2023-04-25T08:17:24.982Z,100.00
2023-04-25T08:19:53.117Z,100.00
2023-04-25T08:22:27.104Z,100.00
2023-04-25T08:25:07.011Z,100.00
2023-04-25T08:27:34.425Z,100.00
2023-04-25T08:30:04.635Z,100.00
2023-04-25T08:32:32.113Z,100.00
2023-04-25T08:35:18.499Z,100.00
2023-04-25T08:37:46.376Z,100.00
2023-04-25T08:40:16.604Z,100.00
2023-04-25T08:42:57.937Z,89.38
2023-04-25T08:45:28.385Z,99.92
2023-04-25T08:47:58.211Z,98.17
2023-04-25T08:50:27.422Z,96.89
2023-04-25T08:52:56.338Z,95.83
2023-04-25T08:55:27.743Z,95.39
2023-04-25T08:57:59.587Z,97.67
2023-04-25T09:00:27.373Z,97.99
2023-04-25T09:02:56.239Z,97.50
2023-04-25T09:05:24.300Z,98.93
2023-04-25T09:07:54.053Z,100.00
2023-04-25T09:10:21.335Z,99.15
2023-04-25T09:13:18.689Z,95.82
2023-04-25T09:16:11.733Z,99.48
2023-04-25T09:18:49.205Z,98.61
2023-04-25T09:21:17.483Z,98.80
2023-04-25T09:23:49.423Z,98.71
2023-04-25T09:26:20.043Z,98.39
2023-04-25T09:28:51.249Z,99.58
2023-04-25T09:31:25.658Z,100.00
2023-04-25T09:34:02.859Z,97.46
2023-04-25T09:36:38.244Z,97.59
2023-04-25T09:39:22.476Z,96.57
2023-04-25T09:42:00.910Z,94.40
2023-04-25T09:44:28.301Z,95.37
2023-04-25T09:46:56.440Z,93.57
2023-04-25T09:49:30.342Z,92.91
2023-04-25T09:52:20.957Z,92.01
2023-04-25T09:55:05.236Z,93.97
2023-04-25T09:57:40.802Z,94.28
2023-04-25T10:00:13.300Z,92.99
2023-04-25T10:02:49.232Z,90.67
2023-04-25T10:05:36.892Z,91.07
2023-04-25T10:08:05.643Z,92.41
2023-04-25T10:10:37.278Z,92.24
2023-04-25T10:13:06.247Z,93.04
2023-04-25T10:15:38.305Z,92.25
2023-04-25T10:18:08.167Z,94.20
2023-04-25T10:20:36.005Z,90.99
2023-04-25T10:23:15.891Z,91.72
2023-04-25T10:25:44.260Z,95.37
2023-04-25T10:28:11.558Z,95.13
2023-04-25T10:30:38.792Z,94.03
2023-04-25T10:33:19.664Z,93.32
2023-04-25T10:35:46.979Z,86.69
2023-04-25T10:38:17.295Z,88.60
2023-04-25T10:41:04.970Z,84.68
2023-04-25T10:43:32.248Z,90.00
2023-04-25T10:46:03.493Z,90.37
2023-04-25T10:48:32.132Z,91.92
2023-04-25T10:51:12.991Z,83.83
2023-04-25T10:53:40.328Z,90.19
2023-04-25T10:56:36.902Z,87.85
2023-04-25T10:59:20.309Z,88.58
2023-04-25T11:01:52.848Z,88.77
2023-04-25T11:04:25.507Z,90.35
2023-04-25T11:07:27.203Z,86.71
2023-04-25T11:09:54.619Z,90.63
2023-04-25T11:12:21.947Z,91.49
2023-04-25T11:14:49.300Z,92.35
2023-04-25T11:17:16.576Z,93.64
2023-04-25T11:19:44.046Z,93.69
2023-04-25T11:22:11.952Z,95.57
2023-04-25T11:24:42.198Z,97.60
2023-04-25T11:27:10.410Z,97.54
2023-04-25T11:29:37.893Z,97.06
2023-04-25T11:32:05.439Z,97.26
2023-04-25T11:34:34.344Z,94.23
2023-04-25T11:37:03.587Z,93.77
2023-04-25T11:39:31.609Z,93.60
2023-04-25T11:41:59.878Z,92.47
2023-04-25T11:44:29.468Z,91.53
2023-04-25T11:46:56.801Z,88.97
2023-04-25T11:49:25.879Z,88.06
2023-04-25T11:51:53.522Z,94.65
2023-04-25T11:54:20.835Z,98.50
2023-04-25T11:56:48.302Z,100.00
2023-04-25T11:59:16.049Z,100.00
2023-04-25T12:01:51.041Z,100.00
2023-04-25T12:04:25.959Z,100.00
2023-04-25T12:06:54.948Z,100.00
2023-04-25T12:09:30.134Z,100.00
2023-04-25T12:11:59.518Z,100.00
2023-04-25T12:14:28.527Z,100.00
2023-04-25T12:16:58.844Z,100.00
2023-04-25T12:19:27.335Z,100.00
2023-04-25T12:21:58.725Z,100.00
2023-04-25T12:24:28.767Z,100.00
2023-04-25T12:27:09.940Z,100.00
2023-04-25T12:32:07.388Z,100.00
2023-04-25T12:34:37.089Z,100.00
2023-04-25T12:37:04.683Z,100.00
2023-04-25T12:39:31.928Z,100.00
2023-04-25T12:42:00.189Z,100.00
2023-04-25T12:44:28.193Z,98.81
2023-04-25T12:46:56.046Z,94.18
2023-04-25T12:49:23.583Z,92.36
2023-04-25T12:51:52.554Z,92.80
2023-04-25T12:54:19.957Z,93.25
2023-04-25T12:56:47.406Z,93.76
2023-04-25T12:59:14.640Z,91.17
2023-04-25T13:01:42.140Z,90.47
2023-04-25T13:04:09.636Z,94.91
2023-04-25T13:06:37.258Z,100.00
2023-04-25T13:09:04.852Z,100.00
2023-04-25T13:11:32.423Z,100.00
2023-04-25T13:13:59.794Z,100.00
2023-04-25T13:16:27.187Z,100.00
2023-04-25T13:18:54.675Z,100.00
2023-04-25T13:21:21.952Z,100.00
2023-04-25T13:23:49.517Z,100.00
2023-04-25T13:26:17.613Z,100.00
2023-04-25T13:28:45.138Z,100.00
2023-04-25T13:31:12.557Z,100.00
2023-04-25T13:33:39.870Z,100.00
2023-04-25T13:36:10.266Z,99.11
2023-04-25T13:38:37.699Z,96.52
2023-04-25T13:41:05.013Z,95.68
2023-04-25T13:43:33.194Z,92.75
2023-04-25T13:46:00.510Z,88.82
2023-04-25T13:48:27.789Z,91.86
2023-04-25T13:50:55.015Z,93.72
2023-04-25T13:53:22.332Z,94.99
2023-04-25T13:55:49.676Z,96.25
2023-04-25T13:58:17.074Z,96.79
2023-04-25T14:00:46.961Z,95.50
2023-04-25T14:03:14.355Z,93.83
2023-04-25T14:05:42.020Z,93.65
2023-04-25T14:08:10.593Z,93.64
2023-04-25T14:10:39.296Z,92.45
2023-04-25T14:13:08.319Z,93.72
2023-04-25T14:15:36.820Z,93.98
2023-04-25T14:18:04.277Z,94.07
2023-04-25T14:20:32.673Z,93.99
2023-04-25T14:22:59.903Z,90.26
2023-04-25T14:25:27.400Z,90.82
2023-04-25T14:27:54.643Z,91.38
2023-04-25T14:30:22.784Z,92.77
2023-04-25T14:32:51.153Z,91.23
2023-04-25T14:35:18.732Z,91.29
2023-04-25T14:37:46.142Z,91.37
2023-04-25T14:40:16.237Z,89.75
2023-04-25T14:42:43.581Z,87.68
2023-04-25T14:45:11.144Z,85.45
2023-04-25T14:47:38.560Z,85.96
2023-04-25T14:50:07.337Z,87.18
2023-04-25T14:52:34.625Z,89.67
2023-04-25T14:55:06.106Z,89.89
2023-04-25T14:57:34.403Z,92.26
2023-04-25T15:00:02.804Z,94.00
2023-04-25T15:02:30.226Z,95.89
2023-04-25T15:04:57.685Z,96.88
2023-04-25T15:07:25.685Z,98.18
2023-04-25T15:09:54.433Z,95.00
2023-04-25T15:12:21.746Z,92.94
2023-04-25T15:14:48.999Z,92.87
2023-04-25T15:17:16.540Z,93.41
2023-04-25T15:19:43.918Z,92.26
2023-04-25T15:22:11.748Z,93.90
2023-04-25T15:24:39.196Z,93.68
2023-04-25T15:27:07.082Z,92.15
2023-04-25T15:29:34.501Z,90.41
2023-04-25T15:32:02.066Z,88.14
2023-04-25T15:34:29.378Z,89.51
2023-04-25T15:36:57.543Z,90.95
2023-04-25T15:39:24.901Z,90.26
2023-04-25T15:41:52.648Z,90.68
2023-04-25T15:44:20.421Z,91.46
2023-04-25T15:46:49.045Z,91.42
2023-04-25T15:49:16.853Z,91.94
2023-04-25T15:51:45.024Z,91.74
2023-04-25T15:54:12.397Z,92.77
2023-04-25T15:56:39.965Z,92.19
2023-04-25T15:59:07.594Z,93.20
2023-04-25T16:01:36.795Z,93.53
2023-04-25T16:04:04.214Z,93.38
2023-04-25T16:06:33.384Z,92.37
2023-04-25T16:09:00.635Z,93.04
2023-04-25T16:11:27.995Z,93.19
2023-04-25T16:13:55.269Z,93.90
2023-04-25T16:16:22.631Z,92.06
2023-04-25T16:18:50.345Z,92.15
2023-04-25T16:21:17.645Z,92.46
2023-04-25T16:23:45.239Z,93.77
2023-04-25T16:26:14.008Z,94.97
2023-04-25T16:28:44.105Z,95.34
2023-04-25T16:31:11.607Z,95.39
2023-04-25T16:33:39.000Z,95.68
2023-04-25T16:36:07.232Z,95.96
2023-04-25T16:38:34.760Z,96.00
2023-04-25T16:41:02.040Z,94.71
2023-04-25T16:43:29.411Z,94.64
2023-04-25T16:45:56.675Z,95.11
2023-04-25T16:48:24.628Z,95.68
2023-04-25T16:50:52.824Z,97.02
2023-04-25T16:53:22.236Z,97.52
2023-04-25T16:55:50.011Z,97.53
2023-04-25T16:58:17.639Z,98.09
2023-04-25T17:00:45.506Z,98.67
2023-04-25T17:03:13.457Z,99.20
2023-04-25T17:05:40.865Z,100.00
2023-04-25T17:08:08.361Z,100.00
2023-04-25T17:10:35.924Z,100.00
2023-04-25T17:13:03.441Z,100.00
2023-04-25T17:18:00.447Z,100.00
2023-04-25T17:20:27.792Z,100.00
2023-04-25T17:22:55.013Z,100.00
2023-04-25T17:25:22.558Z,100.00
2023-04-25T17:27:49.780Z,100.00
2023-04-25T17:30:17.383Z,100.00
2023-04-25T17:32:44.728Z,100.00
2023-04-25T17:35:12.090Z,100.00
2023-04-25T17:37:40.826Z,100.00
2023-04-25T17:40:12.089Z,100.00
2023-04-25T17:42:40.552Z,100.00
2023-04-25T17:45:08.417Z,100.00
2023-04-25T17:47:35.758Z,100.00
2023-04-25T17:50:04.657Z,100.00
2023-04-25T17:52:40.681Z,100.00
2023-04-25T17:55:08.905Z,100.00
2023-04-25T17:57:36.610Z,100.00
2023-04-25T18:00:07.791Z,100.00
2023-04-25T18:02:40.607Z,100.00
2023-04-25T18:05:11.287Z,100.00
2023-04-25T18:07:38.580Z,100.00
2023-04-25T18:10:06.810Z,100.00
2023-04-25T18:12:34.419Z,100.00
2023-04-25T18:15:02.098Z,100.00
2023-04-25T18:17:29.461Z,100.00
2023-04-25T18:19:56.776Z,100.00
2023-04-25T18:22:23.980Z,100.00
2023-04-25T18:24:51.427Z,100.00
2023-04-25T18:27:20.942Z,100.00
2023-04-25T18:29:48.171Z,100.00
2023-04-25T18:32:15.511Z,100.00
2023-04-25T18:34:45.317Z,100.00
2023-04-25T18:37:14.272Z,100.00
2023-04-25T18:39:41.807Z,100.00
2023-04-25T18:42:09.103Z,100.00
2023-04-25T18:44:42.682Z,100.00
2023-04-25T18:47:10.849Z,100.00
2023-04-25T18:49:38.809Z,100.00
2023-04-25T18:52:11.819Z,100.00
2023-04-25T18:54:39.549Z,100.00
2023-04-25T18:57:06.810Z,100.00
2023-04-25T18:59:34.088Z,100.00
2023-04-25T19:02:05.660Z,100.00
2023-04-25T19:04:33.348Z,100.00
2023-04-25T19:07:00.971Z,100.00
2023-04-25T19:09:28.269Z,100.00
2023-04-25T19:11:55.813Z,100.00
2023-04-25T19:14:23.236Z,100.00
2023-04-25T19:16:50.547Z,100.00
2023-04-25T19:19:17.781Z,100.00
2023-04-25T19:21:45.061Z,100.00
2023-04-25T19:24:12.281Z,100.00
2023-04-25T19:26:39.872Z,100.00
2023-04-25T19:29:08.176Z,100.00
2023-04-25T19:31:37.465Z,100.00
2023-04-25T19:34:06.183Z,100.00
2023-04-25T19:36:34.533Z,100.00
2023-04-25T19:39:05.514Z,100.00
2023-04-25T19:41:38.247Z,100.00
2023-04-25T19:44:08.402Z,100.00
2023-04-25T19:46:37.251Z,100.00
2023-04-25T19:49:07.845Z,100.00
2023-04-25T19:51:36.616Z,100.00
2023-04-25T19:54:04.373Z,100.00
2023-04-25T19:56:32.644Z,100.00
2023-04-25T19:58:59.889Z,100.00
2023-04-25T20:01:27.201Z,100.00
2023-04-25T20:03:54.775Z,100.00
2023-04-25T20:06:22.533Z,100.00
2023-04-25T20:08:53.147Z,100.00
2023-04-25T20:11:21.586Z,100.00
2023-04-25T20:13:49.074Z,100.00
2023-04-25T20:16:20.164Z,100.00
2023-04-25T20:18:48.810Z,100.00
2023-04-25T20:21:17.027Z,100.00
2023-04-25T20:23:44.641Z,100.00
2023-04-25T20:26:12.903Z,100.00
2023-04-25T20:28:42.080Z,100.00
2023-04-25T20:31:10.899Z,100.00
2023-04-25T20:33:38.806Z,100.00
2023-04-25T20:36:06.283Z,100.00
2023-04-25T20:38:33.756Z,100.00
2023-04-25T20:41:01.211Z,100.00
2023-04-25T20:43:29.276Z,100.00
2023-04-25T20:45:57.346Z,100.00
2023-04-25T20:48:24.581Z,100.00
2023-04-25T20:50:52.470Z,100.00
2023-04-25T20:53:20.261Z,100.00
2023-04-25T20:55:48.774Z,100.00
2023-04-25T20:58:16.296Z,100.00
2023-04-25T21:00:43.953Z,100.00
2023-04-25T21:03:12.013Z,100.00
2023-04-25T21:05:39.602Z,100.00
2023-04-25T21:08:06.966Z,100.00
2023-04-25T21:10:36.172Z,100.00
2023-04-25T21:13:05.092Z,100.00
2023-04-25T21:15:32.332Z,100.00
2023-04-25T21:17:59.774Z,100.00
2023-04-25T21:20:27.106Z,100.00
2023-04-25T21:22:54.588Z,100.00
2023-04-25T21:25:29.330Z,100.00
2023-04-25T21:27:57.867Z,100.00
2023-04-25T21:30:25.924Z,100.00
2023-04-25T21:32:53.605Z,100.00
2023-04-25T21:35:22.586Z,100.00
2023-04-25T21:37:50.623Z,100.00
2023-04-25T21:40:18.512Z,100.00
2023-04-25T21:42:49.923Z,100.00
2023-04-25T21:45:18.451Z,100.00
2023-04-25T21:47:47.722Z,100.00
2023-04-25T21:50:15.510Z,100.00
2023-04-25T21:52:42.766Z,100.00
2023-04-25T21:55:10.879Z,100.00
2023-04-25T21:57:38.059Z,100.00
2023-04-25T22:00:20.306Z,100.00
2023-04-25T22:02:55.532Z,100.00
2023-04-25T22:05:26.540Z,100.00
2023-04-25T22:07:57.014Z,100.00
2023-04-25T22:10:25.217Z,100.00
2023-04-25T22:12:52.958Z,100.00
2023-04-25T22:15:24.152Z,100.00
2023-04-25T22:17:52.498Z,100.00
2023-04-25T22:20:22.815Z,100.00
2023-04-25T22:22:50.415Z,100.00
2023-04-25T22:25:18.028Z,100.00
2023-04-25T22:27:45.292Z,100.00
2023-04-25T22:30:15.407Z,100.00
2023-04-25T22:32:43.446Z,100.00
2023-04-25T22:35:11.694Z,100.00
2023-04-25T22:37:39.148Z,100.00
2023-04-25T22:40:07.245Z,100.00
2023-04-25T22:42:42.179Z,100.00
2023-04-25T22:45:10.827Z,100.00
2023-04-25T22:47:39.385Z,100.00
2023-04-25T22:50:12.505Z,100.00
2023-04-25T22:52:39.812Z,100.00
2023-04-25T22:55:07.299Z,100.00
2023-04-25T22:57:37.546Z,100.00
2023-04-25T23:00:10.812Z,100.00
2023-04-25T23:02:39.875Z,100.00
2023-04-25T23:05:08.013Z,100.00
2023-04-25T23:07:35.320Z,100.00
2023-04-25T23:10:02.632Z,100.00
2023-04-25T23:12:29.827Z,100.00
2023-04-25T23:14:57.330Z,100.00
2023-04-25T23:17:24.542Z,100.00
2023-04-25T23:19:51.728Z,100.00
2023-04-25T23:22:19.287Z,100.00
2023-04-25T23:24:46.582Z,100.00
2023-04-25T23:27:13.907Z,100.00
2023-04-25T23:29:41.388Z,100.00
2023-04-25T23:32:12.671Z,100.00
2023-04-25T23:34:39.922Z,100.00
2023-04-25T23:37:07.195Z,100.00
2023-04-25T23:39:34.643Z,100.00
2023-04-25T23:42:01.862Z,100.00
2023-04-25T23:44:29.055Z,100.00
2023-04-25T23:46:56.285Z,100.00
2023-04-25T23:49:23.537Z,100.00
2023-04-25T23:51:50.790Z,100.00
2023-04-25T23:54:17.961Z,100.00
2023-04-25T23:56:45.262Z,100.00
2023-04-25T23:59:12.523Z,100.00
